createdAt,value
2022-08-03T00:01:28.019Z,72.78
2022-08-03T00:03:54.711Z,73.70
2022-08-03T00:06:33.756Z,73.52
2022-08-03T00:09:05.169Z,73.73
2022-08-03T00:11:39.693Z,73.80
2022-08-03T00:14:07.041Z,73.67
2022-08-03T00:16:33.948Z,73.80
2022-08-03T00:19:01.308Z,73.75
2022-08-03T00:21:28.912Z,73.73
2022-08-03T00:23:55.517Z,73.83
2022-08-03T00:26:24.634Z,74.07
2022-08-03T00:28:51.658Z,74.37
2022-08-03T00:31:27.780Z,74.27
2022-08-03T00:34:09.234Z,74.64
2022-08-03T00:36:35.781Z,74.62
2022-08-03T00:39:02.259Z,74.71
2022-08-03T00:41:28.900Z,74.74
2022-08-03T00:43:55.400Z,74.68
2022-08-03T00:46:25.370Z,75.24
2022-08-03T00:48:53.183Z,75.15
2022-08-03T00:51:25.268Z,75.08
2022-08-03T00:53:52.323Z,75.33
2022-08-03T00:56:30.409Z,75.71
2022-08-03T00:58:58.260Z,75.93
2022-08-03T01:01:45.549Z,75.92
2022-08-03T01:04:12.202Z,76.27
2022-08-03T01:06:49.204Z,76.24
2022-08-03T01:09:24.142Z,76.33
2022-08-03T01:12:07.936Z,76.56
2022-08-03T01:14:39.852Z,76.71
2022-08-03T01:17:21.626Z,76.59
2022-08-03T01:20:02.091Z,77.00
2022-08-03T01:22:51.937Z,76.71
2022-08-03T01:25:43.023Z,77.45
2022-08-03T01:28:24.576Z,77.89
2022-08-03T01:30:55.309Z,77.96
2022-08-03T01:33:34.453Z,77.78
2022-08-03T01:36:05.120Z,77.96
2022-08-03T01:38:38.627Z,77.66
2022-08-03T01:41:10.752Z,77.83
2022-08-03T01:44:27.759Z,78.43
2022-08-03T01:46:28.582Z,78.24
2022-08-03T01:48:56.139Z,78.37
2022-08-03T01:51:23.089Z,78.46
2022-08-03T01:53:54.769Z,78.81
2022-08-03T01:56:24.802Z,80.05
2022-08-03T01:58:54.338Z,80.12
2022-08-03T02:01:23.027Z,80.02
2022-08-03T02:04:00.614Z,79.67
2022-08-03T02:07:00.696Z,79.74
2022-08-03T02:09:21.526Z,79.94
2022-08-03T02:11:49.428Z,80.31
2022-08-03T02:14:17.254Z,80.42
2022-08-03T02:16:45.901Z,80.50
2022-08-03T02:19:13.686Z,80.07
2022-08-03T02:21:55.688Z,80.81
2022-08-03T02:24:27.103Z,80.77
2022-08-03T02:26:56.446Z,80.72
2022-08-03T02:29:39.800Z,80.88
2022-08-03T02:32:12.403Z,81.56
2022-08-03T02:34:40.447Z,81.90
2022-08-03T02:37:10.244Z,81.68
2022-08-03T02:39:38.984Z,82.13
2022-08-03T02:42:07.080Z,81.65
2022-08-03T02:44:34.165Z,81.34
2022-08-03T02:47:09.711Z,81.21
2022-08-03T02:49:50.055Z,80.90
2022-08-03T02:52:20.692Z,81.19
2022-08-03T02:54:51.271Z,81.48
2022-08-03T02:57:20.745Z,81.64
2022-08-03T02:59:47.758Z,82.13
2022-08-03T03:02:16.901Z,82.62
2022-08-03T03:05:50.558Z,82.58
2022-08-03T03:07:34.663Z,82.90
2022-08-03T03:10:19.877Z,82.95
2022-08-03T03:12:47.134Z,83.00
2022-08-03T03:15:13.674Z,83.53
2022-08-03T03:17:43.072Z,83.33
2022-08-03T03:20:10.163Z,83.58
2022-08-03T03:22:38.033Z,83.91
2022-08-03T03:25:07.519Z,83.62
2022-08-03T03:27:34.419Z,83.98
2022-08-03T03:30:01.306Z,84.60
2022-08-03T03:32:29.540Z,84.72
2022-08-03T03:34:56.697Z,84.89
2022-08-03T03:37:23.178Z,84.63
2022-08-03T03:39:49.705Z,85.39
2022-08-03T03:42:16.676Z,85.83
2022-08-03T03:44:43.447Z,85.92
2022-08-03T03:47:09.956Z,85.81
2022-08-03T03:49:37.829Z,85.90
2022-08-03T03:52:04.667Z,86.07
2022-08-03T03:54:45.241Z,86.22
2022-08-03T03:57:13.082Z,85.77
2022-08-03T03:59:43.536Z,85.84
2022-08-03T04:02:11.536Z,85.92
2022-08-03T04:04:57.290Z,86.22
2022-08-03T04:07:44.208Z,87.02
2022-08-03T04:10:39.493Z,87.03
2022-08-03T04:13:10.109Z,86.94
2022-08-03T04:15:39.612Z,87.54
2022-08-03T04:18:09.729Z,87.22
2022-08-03T04:20:39.017Z,86.87
2022-08-03T04:23:13.613Z,86.87
2022-08-03T04:25:43.932Z,86.83
2022-08-03T04:28:30.530Z,86.51
2022-08-03T04:30:59.775Z,86.45
2022-08-03T04:33:29.659Z,86.36
2022-08-03T04:36:02.749Z,86.27
2022-08-03T04:38:37.600Z,86.19
2022-08-03T04:41:04.788Z,86.10
2022-08-03T04:43:33.431Z,86.29
2022-08-03T04:46:01.487Z,86.18
2022-08-03T04:48:28.645Z,85.98
2022-08-03T04:50:55.368Z,85.94
2022-08-03T04:53:22.426Z,84.93
2022-08-03T04:55:49.975Z,84.64
2022-08-03T04:58:16.685Z,84.64
2022-08-03T05:00:43.383Z,85.37
2022-08-03T05:03:19.512Z,84.84
2022-08-03T05:06:09.442Z,84.79
2022-08-03T05:08:41.118Z,84.69
2022-08-03T05:11:13.242Z,84.58
2022-08-03T05:13:39.616Z,84.31
2022-08-03T05:16:06.189Z,84.25
2022-08-03T05:18:32.761Z,84.39
2022-08-03T05:20:59.217Z,83.97
2022-08-03T05:23:25.653Z,84.13
2022-08-03T05:25:52.064Z,83.23
2022-08-03T05:28:19.945Z,82.29
2022-08-03T05:30:46.374Z,78.50
2022-08-03T05:33:12.820Z,72.82
2022-08-03T05:35:55.788Z,67.18
2022-08-03T05:38:28.729Z,62.72
2022-08-03T05:41:22.096Z,58.79
2022-08-03T05:43:44.018Z,55.46
2022-08-03T05:46:13.061Z,53.29
2022-08-03T05:48:40.028Z,52.24
2022-08-03T05:51:08.198Z,49.25
2022-08-03T05:53:34.733Z,48.35
2022-08-03T05:56:13.255Z,46.40
2022-08-03T05:58:46.778Z,46.42
2022-08-03T06:01:13.892Z,44.95
2022-08-03T06:04:05.052Z,43.18
2022-08-03T06:06:39.199Z,42.77
2022-08-03T06:09:05.723Z,41.88
2022-08-03T06:11:41.518Z,40.67
2022-08-03T06:14:07.978Z,40.21
2022-08-03T06:16:35.454Z,39.14
2022-08-03T06:19:01.911Z,37.12
2022-08-03T06:21:28.377Z,37.30
2022-08-03T06:23:55.748Z,37.56
2022-08-03T06:26:35.792Z,36.11
2022-08-03T06:29:03.803Z,37.05
2022-08-03T06:31:33.844Z,34.76
2022-08-03T06:34:33.153Z,36.36
2022-08-03T06:36:50.957Z,34.52
2022-08-03T06:39:38.526Z,35.01
2022-08-03T06:42:05.062Z,35.62
2022-08-03T06:44:43.347Z,36.81
2022-08-03T06:47:09.896Z,35.22
2022-08-03T06:50:16.620Z,37.14
2022-08-03T06:52:44.029Z,35.42
2022-08-03T06:55:10.552Z,36.12
2022-08-03T07:00:58.061Z,34.62
2022-08-03T07:03:27.371Z,36.66
2022-08-03T07:05:53.899Z,35.75
2022-08-03T07:08:33.623Z,35.17
2022-08-03T07:11:01.472Z,34.29
2022-08-03T07:13:30.089Z,34.47
2022-08-03T07:15:56.918Z,34.25
2022-08-03T07:18:39.715Z,34.61
2022-08-03T07:21:08.207Z,35.01
2022-08-03T07:23:35.053Z,36.15
2022-08-03T07:26:01.851Z,34.50
2022-08-03T07:28:28.496Z,36.48
2022-08-03T07:30:55.293Z,37.58
2022-08-03T07:33:23.307Z,37.85
2022-08-03T07:35:51.327Z,38.84
2022-08-03T07:38:21.012Z,38.34
2022-08-03T07:40:48.167Z,39.02
2022-08-03T07:43:14.858Z,38.70
2022-08-03T07:53:00.327Z,38.70
2022-08-03T07:55:47.900Z,38.72
2022-08-03T07:58:49.114Z,39.66
2022-08-03T08:03:59.571Z,39.30
2022-08-03T08:06:26.259Z,38.66
2022-08-03T08:08:54.092Z,37.96
2022-08-03T08:11:22.358Z,37.89
2022-08-03T08:13:49.091Z,38.52
2022-08-03T08:16:15.900Z,38.35
2022-08-03T08:18:42.546Z,38.50
2022-08-03T08:21:10.315Z,39.51
2022-08-03T08:23:42.500Z,38.68
2022-08-03T08:26:11.083Z,39.01
2022-08-03T08:28:37.527Z,37.90
2022-08-03T08:31:04.132Z,37.72
2022-08-03T08:33:48.296Z,37.83
2022-08-03T08:36:17.381Z,36.09
2022-08-03T08:39:28.705Z,37.17
2022-08-03T08:41:55.386Z,37.98
2022-08-03T08:44:32.281Z,38.03
2022-08-03T08:47:02.619Z,36.16
2022-08-03T08:50:27.374Z,34.75
2022-08-03T08:54:03.240Z,35.28
2022-08-03T09:03:54.407Z,35.81
2022-08-03T09:06:53.713Z,35.75
2022-08-03T09:10:10.571Z,34.59
2022-08-03T09:12:42.213Z,34.21
2022-08-03T09:15:35.904Z,35.79
2022-08-03T09:18:04.216Z,35.11
2022-08-03T09:20:34.311Z,35.07
2022-08-03T09:23:19.169Z,36.12
2022-08-03T09:25:59.896Z,35.63
2022-08-03T09:28:57.937Z,35.74
2022-08-03T09:31:31.568Z,36.01
2022-08-03T09:34:01.372Z,34.32
2022-08-03T09:36:54.543Z,33.28
2022-08-03T09:39:41.541Z,33.51
2022-08-03T09:42:18.389Z,33.78
2022-08-03T09:44:47.291Z,33.71
2022-08-03T09:47:17.267Z,33.43
2022-08-03T09:50:14.243Z,33.50
2022-08-03T09:56:33.784Z,32.54
2022-08-03T09:58:51.241Z,31.40
2022-08-03T10:01:24.121Z,31.52
2022-08-03T10:04:04.011Z,30.57
2022-08-03T10:06:31.377Z,31.10
2022-08-03T10:09:10.315Z,30.87
2022-08-03T10:11:41.594Z,30.74
2022-08-03T10:14:11.201Z,29.80
2022-08-03T10:16:39.990Z,30.16
2022-08-03T10:22:48.144Z,30.21
2022-08-03T10:25:17.065Z,30.38
2022-08-03T10:28:31.058Z,30.87
2022-08-03T10:31:38.821Z,28.89
2022-08-03T10:34:27.073Z,29.52
2022-08-03T10:36:58.421Z,29.95
2022-08-03T10:39:29.393Z,30.94
2022-08-03T10:41:59.878Z,29.83
2022-08-03T10:48:26.847Z,30.19
2022-08-03T10:50:54.099Z,28.20
2022-08-03T10:53:40.593Z,28.37
2022-08-03T10:56:51.273Z,26.79
2022-08-03T10:59:27.695Z,28.65
2022-08-03T11:02:00.153Z,27.14
2022-08-03T11:04:29.972Z,26.28
2022-08-03T11:07:25.043Z,26.57
2022-08-03T11:09:54.408Z,25.91
2022-08-03T11:19:56.868Z,24.56
2022-08-03T11:22:25.194Z,26.48
2022-08-03T11:24:54.153Z,25.51
2022-08-03T11:27:26.047Z,25.63
2022-08-03T11:30:09.560Z,26.07
2022-08-03T11:32:48.376Z,25.63
2022-08-03T11:35:16.966Z,25.64
2022-08-03T11:38:04.395Z,25.87
2022-08-03T11:40:54.736Z,26.42
2022-08-03T11:43:31.379Z,26.98
2022-08-03T11:46:07.521Z,27.08
2022-08-03T11:48:34.028Z,27.46
2022-08-03T11:51:01.668Z,26.52
2022-08-03T11:53:28.968Z,25.08
2022-08-03T11:55:59.440Z,25.56
2022-08-03T11:59:10.993Z,25.32
2022-08-03T12:01:13.726Z,25.58
2022-08-03T12:03:40.525Z,24.92
2022-08-03T12:06:10.747Z,25.24
2022-08-03T12:08:37.561Z,25.41
2022-08-03T12:11:06.792Z,25.21
2022-08-03T12:14:44.169Z,24.90
2022-08-03T12:16:31.980Z,25.71
2022-08-03T12:19:03.982Z,24.55
2022-08-03T12:21:45.774Z,26.17
2022-08-03T12:24:24.340Z,25.75
2022-08-03T12:26:58.162Z,25.12
2022-08-03T12:37:22.099Z,24.50
2022-08-03T12:40:10.459Z,24.24
2022-08-03T12:42:39.765Z,23.99
2022-08-03T12:45:34.653Z,23.71
2022-08-03T12:48:12.464Z,23.12
2022-08-03T12:50:40.334Z,23.44
2022-08-03T12:53:09.358Z,22.31
2022-08-03T12:55:40.166Z,21.71
2022-08-03T12:58:36.210Z,21.76
2022-08-03T13:01:10.142Z,23.14
2022-08-03T13:03:49.652Z,22.48
2022-08-03T13:08:28.079Z,21.98
2022-08-03T13:10:17.693Z,21.83
2022-08-03T13:13:14.549Z,22.97
2022-08-03T13:16:18.989Z,22.31
2022-08-03T13:33:22.727Z,22.86
2022-08-03T13:35:50.886Z,22.73
2022-08-03T13:38:17.939Z,23.45
2022-08-03T13:40:49.428Z,23.25
2022-08-03T13:43:16.589Z,22.69
2022-08-03T13:45:49.373Z,23.14
2022-08-03T13:48:36.905Z,23.70
2022-08-03T13:51:11.987Z,23.74
2022-08-03T13:53:49.845Z,22.99
2022-08-03T13:56:17.417Z,24.01
2022-08-03T13:58:44.166Z,23.80
2022-08-03T14:01:13.169Z,24.27
2022-08-03T14:03:39.878Z,24.17
2022-08-03T14:06:06.512Z,23.82
2022-08-03T14:08:33.185Z,23.20
2022-08-03T14:10:59.915Z,23.34
2022-08-03T14:13:26.625Z,23.49
2022-08-03T14:15:53.269Z,22.75
2022-08-03T14:18:28.477Z,23.20
2022-08-03T14:21:01.910Z,22.63
2022-08-03T14:23:32.666Z,22.86
2022-08-03T14:25:59.551Z,22.79
2022-08-03T14:28:26.306Z,22.11
2022-08-03T14:30:54.641Z,21.62
2022-08-03T14:33:22.022Z,21.69
2022-08-03T14:35:49.478Z,22.04
2022-08-03T14:38:17.609Z,22.32
2022-08-03T14:40:45.215Z,22.28
2022-08-03T14:43:12.393Z,22.48
2022-08-03T14:45:40.289Z,22.25
2022-08-03T14:50:30.652Z,22.45
2022-08-03T14:50:55.501Z,21.91
2022-08-03T14:53:23.297Z,22.32
2022-08-03T14:55:51.986Z,22.08
2022-08-03T14:58:27.633Z,21.38
2022-08-03T15:00:56.010Z,21.69
2022-08-03T15:03:24.955Z,22.00
2022-08-03T15:05:56.809Z,22.13
2022-08-03T15:08:25.005Z,21.99
2022-08-03T15:10:53.143Z,22.45
2022-08-03T15:13:21.630Z,22.21
2022-08-03T15:15:51.959Z,22.66
2022-08-03T15:22:05.500Z,21.50
2022-08-03T15:24:35.748Z,21.45
2022-08-03T15:27:02.318Z,21.16
2022-08-03T15:30:08.221Z,21.76
2022-08-03T15:32:20.508Z,21.16
2022-08-03T15:34:50.374Z,21.42
2022-08-03T15:37:19.213Z,21.08
2022-08-03T15:39:59.345Z,21.14
2022-08-03T15:42:27.146Z,20.70
2022-08-03T15:44:54.530Z,20.73
2022-08-03T15:47:21.765Z,20.84
2022-08-03T15:49:48.698Z,21.19
2022-08-03T15:52:15.387Z,20.97
2022-08-03T15:54:42.061Z,20.82
2022-08-03T15:57:08.803Z,21.29
2022-08-03T15:59:35.466Z,21.47
2022-08-03T16:02:02.348Z,21.14
2022-08-03T16:04:29.086Z,21.87
2022-08-03T16:06:55.747Z,21.88
2022-08-03T16:09:22.836Z,21.92
2022-08-03T16:12:14.482Z,21.92
2022-08-03T16:14:52.839Z,21.82
2022-08-03T16:17:22.086Z,21.95
2022-08-03T16:19:49.151Z,21.80
2022-08-03T16:22:19.499Z,21.78
2022-08-03T16:24:47.489Z,21.89
2022-08-03T16:27:36.633Z,22.33
2022-08-03T16:30:01.463Z,21.53
2022-08-03T16:32:28.244Z,21.71
2022-08-03T16:34:54.969Z,21.93
2022-08-03T16:37:41.275Z,22.20
2022-08-03T16:40:17.311Z,22.57
2022-08-03T16:42:47.052Z,22.31
2022-08-03T16:45:14.358Z,22.18
2022-08-03T16:51:13.696Z,22.19
2022-08-03T16:54:07.942Z,21.82
2022-08-03T16:56:29.414Z,22.18
2022-08-03T16:58:56.697Z,22.50
2022-08-03T17:01:24.646Z,22.35
2022-08-03T17:04:03.446Z,22.65
2022-08-03T17:06:37.476Z,23.25
2022-08-03T17:09:11.166Z,23.24
2022-08-03T17:11:44.145Z,22.64
2022-08-03T17:14:16.013Z,23.37
2022-08-03T17:16:52.979Z,23.40
2022-08-03T17:19:23.728Z,24.11
2022-08-03T17:22:02.153Z,24.13
2022-08-03T17:24:35.548Z,23.52
2022-08-03T17:28:41.492Z,23.45
2022-08-03T17:30:13.474Z,23.45
2022-08-03T17:32:52.707Z,23.99
2022-08-03T17:35:24.839Z,23.98
2022-08-03T17:38:06.733Z,24.39
2022-08-03T17:40:37.968Z,24.70
2022-08-03T17:44:13.194Z,24.64
2022-08-03T17:45:54.576Z,24.28
2022-08-03T17:48:25.564Z,24.84
2022-08-03T17:51:17.296Z,25.10
2022-08-03T17:54:05.811Z,25.24
2022-08-03T17:56:57.766Z,25.57
2022-08-03T17:59:50.653Z,26.09
2022-08-03T18:02:47.638Z,26.04
2022-08-03T18:05:17.710Z,26.71
2022-08-03T18:08:01.455Z,27.26
2022-08-03T18:10:35.161Z,27.29
2022-08-03T18:13:10.632Z,27.37
2022-08-03T18:15:50.380Z,27.53
2022-08-03T18:18:32.506Z,27.61
2022-08-03T18:21:04.566Z,27.33
2022-08-03T18:23:36.800Z,27.95
2022-08-03T18:26:07.499Z,28.31
2022-08-03T18:28:39.399Z,28.25
2022-08-03T18:31:11.661Z,28.44
2022-08-03T18:36:30.466Z,28.79
2022-08-03T18:38:59.686Z,28.69
2022-08-03T18:41:32.246Z,29.07
2022-08-03T18:44:08.496Z,29.53
2022-08-03T18:46:42.112Z,30.10
2022-08-03T18:49:50.655Z,30.45
2022-08-03T18:52:27.112Z,31.15
2022-08-03T18:55:02.652Z,32.15
2022-08-03T18:57:46.503Z,32.56
2022-08-03T19:00:24.551Z,33.13
2022-08-03T19:03:12.403Z,33.61
2022-08-03T19:06:02.448Z,34.84
2022-08-03T19:08:38.600Z,35.65
2022-08-03T19:11:10.117Z,36.25
2022-08-03T19:13:50.758Z,36.13
2022-08-03T19:20:06.275Z,35.69
2022-08-03T19:22:33.908Z,35.83
2022-08-03T19:25:02.503Z,35.64
2022-08-03T19:27:31.557Z,36.53
2022-08-03T19:30:07.620Z,36.81
2022-08-03T19:32:41.593Z,37.66
2022-08-03T19:35:18.998Z,37.60
2022-08-03T19:38:02.720Z,37.61
2022-08-03T19:40:32.800Z,37.68
2022-08-03T19:43:17.530Z,37.48
2022-08-03T19:46:04.916Z,37.47
2022-08-03T19:48:35.452Z,37.59
2022-08-03T19:51:04.645Z,37.58
2022-08-03T19:53:45.160Z,38.37
2022-08-03T19:56:14.461Z,38.63
2022-08-03T19:58:43.241Z,38.57
2022-08-03T20:01:19.270Z,38.56
2022-08-03T20:03:49.055Z,38.42
2022-08-03T20:06:17.282Z,39.08
2022-08-03T20:08:44.221Z,39.40
2022-08-03T20:11:11.747Z,39.55
2022-08-03T20:13:39.167Z,39.61
2022-08-03T20:16:06.265Z,39.60
2022-08-03T20:18:39.268Z,39.82
2022-08-03T20:21:15.256Z,40.37
2022-08-03T20:24:01.739Z,40.61
2022-08-03T20:26:30.640Z,41.06
2022-08-03T20:29:06.103Z,41.85
2022-08-03T20:31:37.767Z,42.28
2022-08-03T20:34:06.528Z,42.76
2022-08-03T20:36:33.367Z,42.63
2022-08-03T20:39:00.144Z,42.61
2022-08-03T20:41:27.096Z,43.06
2022-08-03T20:43:54.456Z,43.83
2022-08-03T20:46:32.821Z,43.68
2022-08-03T20:49:06.178Z,44.39
2022-08-03T20:51:50.083Z,44.88
2022-08-03T20:54:29.661Z,44.98
2022-08-03T20:57:00.821Z,45.45
2022-08-03T21:02:29.505Z,46.22
2022-08-03T21:05:02.873Z,46.77
2022-08-03T21:08:06.250Z,46.74
2022-08-03T21:10:37.893Z,47.11
2022-08-03T21:13:04.224Z,28.69
2022-08-03T21:13:07.829Z,45.59
2022-08-03T21:13:18.937Z,47.85
2022-08-03T21:16:11.483Z,47.49
2022-08-03T21:18:44.425Z,47.42
2022-08-03T21:21:16.293Z,48.18
2022-08-03T21:23:48.929Z,48.37
2022-08-03T21:26:19.029Z,49.13
2022-08-03T21:28:51.314Z,49.01
2022-08-03T21:31:24.368Z,49.65
2022-08-03T21:33:58.110Z,50.04
2022-08-03T21:36:27.962Z,50.14
2022-08-03T21:38:57.261Z,50.44
2022-08-03T21:41:29.917Z,51.35
2022-08-03T21:43:57.661Z,51.49
2022-08-03T21:46:26.751Z,51.52
2022-08-03T21:50:05.120Z,51.63
2022-08-03T21:51:50.269Z,51.94
2022-08-03T21:54:20.353Z,51.51
2022-08-03T21:56:48.381Z,51.77
2022-08-03T21:59:23.274Z,52.09
2022-08-03T22:01:55.221Z,52.40
2022-08-03T22:04:50.241Z,52.65
2022-08-03T22:07:12.722Z,52.86
2022-08-03T22:09:39.825Z,52.88
2022-08-03T22:12:17.518Z,52.94
2022-08-03T22:14:45.237Z,53.64
2022-08-03T22:17:12.385Z,53.49
2022-08-03T22:19:59.101Z,53.74
2022-08-03T22:22:28.516Z,53.53
2022-08-03T22:25:04.284Z,53.82
2022-08-03T22:27:34.395Z,54.11
2022-08-03T22:30:21.580Z,54.00
2022-08-03T22:32:52.075Z,54.19
2022-08-03T22:35:21.027Z,54.65
2022-08-03T22:37:49.693Z,54.82
2022-08-03T22:40:17.028Z,55.15
2022-08-03T22:42:46.066Z,55.22
2022-08-03T22:46:06.112Z,55.58
2022-08-03T22:48:00.462Z,55.11
2022-08-03T22:50:32.045Z,54.86
2022-08-03T22:53:00.413Z,55.60
2022-08-03T22:55:27.674Z,55.53
2022-08-03T22:57:56.014Z,55.89
2022-08-03T23:00:24.196Z,55.67
2022-08-03T23:02:53.687Z,55.83
2022-08-03T23:06:01.645Z,55.97
2022-08-03T23:08:15.173Z,56.29
2022-08-03T23:10:47.055Z,56.19
2022-08-03T23:13:17.450Z,56.75
2022-08-03T23:15:51.444Z,56.75
2022-08-03T23:18:22.183Z,57.41
2022-08-03T23:20:52.975Z,57.13
2022-08-03T23:23:20.595Z,57.67
2022-08-03T23:25:49.784Z,57.57
2022-08-03T23:28:17.360Z,57.68
2022-08-03T23:30:45.548Z,58.21
2022-08-03T23:33:14.957Z,57.84
2022-08-03T23:36:28.725Z,57.86
2022-08-03T23:38:46.290Z,57.90
2022-08-03T23:41:14.016Z,58.43
2022-08-03T23:43:51.083Z,58.24
2022-08-03T23:46:20.086Z,58.33
2022-08-03T23:48:46.856Z,58.84
2022-08-03T23:51:40.734Z,58.73
2022-08-03T23:54:55.266Z,59.49
2022-08-03T23:57:43.258Z,59.24
